createdAt,value
2023-11-17T00:01:21.961Z,8.40
2023-11-17T00:03:49.661Z,8.13
2023-11-17T00:06:17.475Z,7.53
2023-11-17T00:08:45.239Z,8.00
2023-11-17T00:11:13.148Z,8.43
2023-11-17T00:13:41.772Z,7.50
2023-11-17T00:16:09.827Z,8.63
2023-11-17T00:18:41.166Z,8.33
2023-11-17T00:21:08.926Z,7.93
2023-11-17T00:23:36.541Z,8.50
2023-11-17T00:26:05.327Z,8.47
2023-11-17T00:28:40.387Z,7.50
2023-11-17T00:31:08.422Z,8.90
2023-11-17T00:33:36.191Z,9.47
2023-11-17T00:36:04.167Z,9.20
2023-11-17T00:38:32.828Z,9.17
2023-11-17T00:41:01.177Z,10.07
2023-11-17T00:43:28.984Z,9.87
2023-11-17T00:46:00.331Z,8.90
2023-11-17T00:48:29.109Z,8.47
2023-11-17T00:50:58.266Z,9.07
2023-11-17T00:53:30.254Z,9.37
2023-11-17T00:55:58.643Z,9.30
2023-11-17T00:58:27.131Z,9.30
2023-11-17T01:00:57.423Z,9.27
2023-11-17T01:03:25.714Z,10.23
2023-11-17T01:05:53.463Z,9.33
2023-11-17T01:08:21.108Z,9.80
2023-11-17T01:10:49.359Z,10.20
2023-11-17T01:13:17.137Z,9.70
2023-11-17T01:15:45.542Z,9.63
2023-11-17T01:18:13.188Z,9.87
2023-11-17T01:20:42.339Z,10.20
2023-11-17T01:23:10.171Z,11.60
2023-11-17T01:25:38.699Z,10.63
2023-11-17T01:28:08.209Z,10.93
2023-11-17T01:30:36.212Z,10.47
2023-11-17T01:33:05.073Z,11.80
2023-11-17T01:35:32.905Z,10.73
2023-11-17T01:38:02.680Z,11.63
2023-11-17T01:40:32.280Z,11.90
2023-11-17T01:43:07.134Z,12.97
2023-11-17T01:45:35.975Z,12.87
2023-11-17T01:48:04.072Z,13.67
2023-11-17T01:50:33.131Z,13.20
2023-11-17T01:53:01.374Z,11.53
2023-11-17T01:55:29.362Z,12.43
2023-11-17T01:57:57.303Z,13.13
2023-11-17T02:00:25.208Z,13.30
2023-11-17T02:02:53.781Z,12.93
2023-11-17T02:05:25.808Z,14.07
2023-11-17T02:08:22.983Z,13.47
2023-11-17T02:10:56.791Z,13.63
2023-11-17T02:13:30.440Z,13.20
2023-11-17T02:15:58.957Z,13.23
2023-11-17T02:18:29.601Z,13.17
2023-11-17T02:20:57.310Z,12.07
2023-11-17T02:23:27.427Z,12.60
2023-11-17T02:26:19.154Z,13.03
2023-11-17T02:29:01.332Z,12.40
2023-11-17T02:31:30.903Z,12.90
2023-11-17T02:34:00.251Z,12.30
2023-11-17T02:36:27.998Z,13.73
2023-11-17T02:38:58.046Z,15.87
2023-11-17T02:41:33.828Z,14.23
2023-11-17T02:44:05.494Z,13.47
2023-11-17T02:46:33.743Z,14.73
2023-11-17T02:49:02.036Z,13.77
2023-11-17T02:51:34.348Z,16.07
2023-11-17T02:54:09.396Z,14.40
2023-11-17T02:56:39.673Z,16.03
2023-11-17T02:59:11.397Z,16.47
2023-11-17T03:01:42.755Z,16.47
2023-11-17T03:04:15.317Z,16.00
2023-11-17T03:06:47.948Z,16.27
2023-11-17T03:09:16.146Z,16.67
2023-11-17T03:11:46.869Z,16.63
2023-11-17T03:14:14.432Z,16.83
2023-11-17T03:16:42.195Z,17.53
2023-11-17T03:19:13.010Z,18.33
2023-11-17T03:21:44.195Z,16.80
2023-11-17T03:24:18.845Z,17.90
2023-11-17T03:26:47.502Z,19.00
2023-11-17T03:29:16.478Z,19.00
2023-11-17T03:31:49.686Z,17.77
2023-11-17T03:34:17.587Z,18.50
2023-11-17T03:36:45.499Z,21.67
2023-11-17T03:39:16.314Z,18.90
2023-11-17T03:41:44.032Z,20.77
2023-11-17T03:44:11.662Z,20.70
2023-11-17T03:46:39.302Z,20.77
2023-11-17T03:49:08.416Z,19.30
2023-11-17T03:51:36.260Z,20.90
2023-11-17T03:54:06.635Z,20.00
2023-11-17T03:56:34.314Z,21.67
2023-11-17T03:59:04.684Z,19.00
2023-11-17T04:01:35.575Z,20.90
2023-11-17T04:04:03.536Z,21.17
2023-11-17T04:06:31.073Z,20.33
2023-11-17T04:08:59.297Z,21.57
2023-11-17T04:11:27.026Z,21.03
2023-11-17T04:13:54.579Z,21.67
2023-11-17T04:16:22.394Z,20.37
2023-11-17T04:18:51.008Z,23.07
2023-11-17T04:21:18.747Z,21.47
2023-11-17T04:23:46.957Z,28.20
2023-11-17T04:26:14.930Z,23.93
2023-11-17T04:28:45.198Z,23.53
2023-11-17T04:31:13.127Z,21.80
2023-11-17T04:33:41.516Z,23.40
2023-11-17T04:36:12.155Z,20.73
2023-11-17T04:38:39.869Z,21.03
2023-11-17T04:41:07.919Z,22.37
2023-11-17T04:43:36.884Z,21.87
2023-11-17T04:46:08.268Z,20.03
2023-11-17T04:48:36.072Z,21.23
2023-11-17T04:51:03.845Z,19.73
2023-11-17T04:53:31.384Z,19.57
2023-11-17T04:55:59.059Z,22.47
2023-11-17T04:58:27.094Z,19.37
2023-11-17T05:00:54.629Z,19.23
2023-11-17T05:03:22.800Z,20.20
2023-11-17T05:05:50.878Z,19.30
2023-11-17T05:08:18.573Z,18.57
2023-11-17T05:10:47.035Z,18.57
2023-11-17T05:13:14.944Z,18.67
2023-11-17T05:15:47.698Z,19.17
2023-11-17T05:18:15.836Z,17.43
2023-11-17T05:20:43.512Z,17.10
2023-11-17T05:23:14.071Z,17.53
2023-11-17T05:25:41.950Z,17.70
2023-11-17T05:28:09.777Z,16.57
2023-11-17T05:30:37.988Z,16.23
2023-11-17T05:33:05.905Z,14.97
2023-11-17T05:35:33.609Z,16.63
2023-11-17T05:38:01.228Z,16.37
2023-11-17T05:40:28.785Z,13.80
2023-11-17T05:42:56.382Z,15.43
2023-11-17T05:45:24.590Z,15.90
2023-11-17T05:47:52.034Z,14.07
2023-11-17T05:50:20.206Z,14.07
2023-11-17T05:52:48.351Z,13.77
2023-11-17T05:55:18.520Z,13.40
2023-11-17T05:57:46.264Z,12.00
2023-11-17T06:00:15.098Z,13.43
2023-11-17T06:02:44.081Z,12.53
2023-11-17T06:05:14.542Z,12.33
2023-11-17T06:07:42.909Z,10.70
2023-11-17T06:10:11.573Z,11.57
2023-11-17T06:12:39.421Z,11.60
2023-11-17T06:15:07.560Z,11.20
2023-11-17T06:17:36.574Z,12.33
2023-11-17T06:20:04.971Z,12.57
2023-11-17T06:22:33.193Z,12.67
2023-11-17T06:25:00.930Z,12.07
2023-11-17T06:27:28.903Z,12.43
2023-11-17T06:29:57.224Z,12.57
2023-11-17T06:32:24.876Z,12.53
2023-11-17T06:34:52.335Z,11.43
2023-11-17T06:37:19.943Z,13.03
2023-11-17T06:39:47.526Z,12.03
2023-11-17T06:42:15.135Z,11.70
2023-11-17T06:44:42.617Z,11.00
2023-11-17T06:47:10.372Z,11.00
2023-11-17T06:49:38.909Z,10.97
2023-11-17T06:52:09.438Z,11.57
2023-11-17T06:54:36.994Z,11.37
2023-11-17T06:57:04.485Z,10.50
2023-11-17T06:59:31.965Z,10.77
2023-11-17T07:02:01.692Z,10.10
2023-11-17T07:04:31.659Z,10.73
2023-11-17T07:07:00.553Z,9.97
2023-11-17T07:09:33.447Z,11.00
2023-11-17T07:12:01.382Z,11.23
2023-11-17T07:14:31.774Z,11.20
2023-11-17T07:16:59.626Z,12.57
2023-11-17T07:19:27.229Z,11.20
2023-11-17T07:21:56.409Z,12.87
2023-11-17T07:24:24.720Z,12.33
2023-11-17T07:26:52.385Z,12.33
2023-11-17T07:29:19.878Z,12.53
2023-11-17T07:31:49.177Z,11.47
2023-11-17T07:34:18.036Z,12.87
2023-11-17T07:36:46.747Z,13.17
2023-11-17T07:39:14.728Z,12.90
2023-11-17T07:41:42.468Z,14.10
2023-11-17T07:44:13.582Z,12.07
2023-11-17T07:46:41.203Z,13.07
2023-11-17T07:49:11.639Z,12.43
2023-11-17T07:51:39.337Z,10.27
2023-11-17T07:54:07.919Z,9.20
2023-11-17T07:56:36.724Z,11.10
2023-11-17T07:59:04.957Z,12.40
2023-11-17T08:01:32.864Z,12.27
2023-11-17T08:04:02.398Z,13.17
2023-11-17T08:06:30.809Z,12.63
2023-11-17T08:08:58.408Z,12.03
2023-11-17T08:11:27.187Z,13.00
2023-11-17T08:13:59.051Z,22.37
2023-11-17T08:16:28.057Z,56.50
2023-11-17T08:18:59.624Z,37.03
2023-11-17T08:21:34.552Z,59.43
2023-11-17T08:24:02.593Z,15.90
2023-11-17T08:26:33.588Z,21.00
2023-11-17T08:29:03.553Z,13.83
2023-11-17T08:31:31.256Z,12.23
2023-11-17T08:33:58.944Z,12.33
2023-11-17T08:36:29.354Z,13.50
2023-11-17T08:39:00.330Z,12.87
2023-11-17T08:41:28.165Z,11.80
2023-11-17T08:43:58.398Z,10.83
2023-11-17T08:46:27.855Z,10.40
2023-11-17T08:48:57.647Z,11.80
2023-11-17T08:51:25.458Z,11.67
2023-11-17T08:53:53.017Z,10.33
2023-11-17T08:56:20.591Z,10.57
2023-11-17T08:58:48.569Z,9.47
2023-11-17T09:01:17.296Z,10.03
2023-11-17T09:03:45.892Z,10.73
2023-11-17T09:06:14.592Z,11.10
2023-11-17T09:08:42.274Z,8.80
2023-11-17T09:11:09.981Z,9.33
2023-11-17T09:13:47.889Z,9.20
2023-11-17T09:16:43.471Z,9.30
2023-11-17T09:19:17.556Z,7.73
2023-11-17T09:21:45.365Z,7.80
2023-11-17T09:24:12.922Z,8.10
2023-11-17T09:26:40.411Z,8.23
2023-11-17T09:29:08.698Z,7.80
2023-11-17T09:31:36.323Z,7.10
2023-11-17T09:34:04.077Z,7.20
2023-11-17T09:36:31.693Z,7.57
2023-11-17T09:38:59.238Z,8.00
2023-11-17T09:41:26.913Z,6.63
2023-11-17T09:43:59.105Z,7.23
2023-11-17T09:46:34.819Z,7.23
2023-11-17T09:49:03.938Z,7.73
2023-11-17T09:51:33.947Z,8.17
2023-11-17T09:54:03.914Z,7.10
2023-11-17T09:56:32.109Z,8.07
2023-11-17T09:58:59.942Z,8.07
2023-11-17T10:01:30.330Z,7.70
2023-11-17T10:04:03.508Z,7.33
2023-11-17T10:06:31.867Z,6.43
2023-11-17T10:09:01.197Z,7.30
2023-11-17T10:11:28.918Z,7.57
2023-11-17T10:13:57.726Z,8.50
2023-11-17T10:16:25.673Z,7.43
2023-11-17T10:18:54.020Z,8.57
2023-11-17T10:21:21.593Z,8.00
2023-11-17T10:23:52.225Z,7.07
2023-11-17T10:26:21.342Z,7.50
2023-11-17T10:28:49.170Z,7.27
2023-11-17T10:31:18.119Z,6.40
2023-11-17T10:33:47.389Z,7.40
2023-11-17T10:36:17.828Z,7.53
2023-11-17T10:38:47.321Z,7.23
2023-11-17T10:41:22.446Z,7.17
2023-11-17T10:43:51.682Z,7.00
2023-11-17T10:46:23.246Z,7.20
2023-11-17T10:48:51.684Z,7.50
2023-11-17T10:51:20.562Z,7.57
2023-11-17T10:54:13.167Z,8.03
2023-11-17T10:56:41.831Z,8.07
2023-11-17T10:59:22.398Z,8.53
2023-11-17T11:01:52.744Z,7.03
2023-11-17T11:04:30.497Z,7.27
2023-11-17T11:06:59.052Z,6.80
2023-11-17T11:09:34.181Z,7.10
2023-11-17T11:12:02.788Z,7.13
2023-11-17T11:14:32.486Z,7.77
2023-11-17T11:17:00.787Z,7.87
2023-11-17T11:19:41.186Z,8.33
2023-11-17T11:22:17.009Z,7.40
2023-11-17T11:24:45.184Z,6.87
2023-11-17T11:27:15.744Z,7.67
2023-11-17T11:29:44.304Z,7.00
2023-11-17T11:32:15.506Z,8.57
2023-11-17T11:34:43.608Z,7.53
2023-11-17T11:37:11.585Z,7.70
2023-11-17T11:39:39.560Z,7.60
2023-11-17T11:42:08.746Z,7.47
2023-11-17T11:44:37.095Z,6.47
2023-11-17T11:47:06.259Z,8.67
2023-11-17T11:49:35.731Z,10.07
2023-11-17T11:52:20.597Z,7.97
2023-11-17T11:54:48.301Z,6.27
2023-11-17T11:57:27.229Z,6.50
2023-11-17T12:00:00.992Z,7.53
2023-11-17T12:02:31.662Z,7.17
2023-11-17T12:05:04.477Z,7.07
2023-11-17T12:07:38.440Z,7.33
2023-11-17T12:10:06.848Z,7.87
2023-11-17T12:12:35.738Z,7.33
2023-11-17T12:15:06.479Z,6.93
2023-11-17T12:17:34.458Z,7.40
2023-11-17T12:20:23.029Z,6.60
2023-11-17T12:23:04.929Z,6.53
2023-11-17T12:25:32.785Z,7.07
2023-11-17T12:28:00.930Z,6.53
2023-11-17T12:30:28.758Z,6.63
2023-11-17T12:32:58.787Z,7.60
2023-11-17T12:35:31.404Z,6.80
2023-11-17T12:37:59.312Z,7.07
2023-11-17T12:40:29.721Z,7.07
2023-11-17T12:42:59.000Z,6.20
2023-11-17T12:45:29.582Z,6.17
2023-11-17T12:48:01.599Z,6.37
2023-11-17T12:50:42.466Z,6.23
2023-11-17T12:53:11.315Z,5.67
2023-11-17T12:55:48.587Z,5.10
2023-11-17T12:58:16.365Z,5.47
2023-11-17T13:00:47.494Z,4.87
2023-11-17T13:03:15.310Z,6.40
2023-11-17T13:05:42.993Z,4.60
2023-11-17T13:08:10.596Z,5.10
2023-11-17T13:10:38.092Z,4.60
2023-11-17T13:13:07.468Z,5.00
2023-11-17T13:15:35.117Z,5.47
2023-11-17T13:18:04.126Z,5.03
2023-11-17T13:20:32.193Z,5.10
2023-11-17T13:22:59.764Z,5.20
2023-11-17T13:25:27.752Z,5.80
2023-11-17T13:27:55.539Z,5.50
2023-11-17T13:30:23.389Z,4.93
2023-11-17T13:32:57.838Z,7.63
2023-11-17T13:35:30.017Z,5.83
2023-11-17T13:38:04.859Z,12.50
2023-11-17T13:40:43.425Z,6.67
2023-11-17T13:43:12.430Z,5.40
2023-11-17T13:45:49.731Z,6.03
2023-11-17T13:48:22.423Z,5.43
2023-11-17T13:50:53.464Z,4.77
2023-11-17T13:53:24.089Z,6.03
2023-11-17T13:55:54.449Z,5.07
2023-11-17T13:58:22.106Z,6.47
2023-11-17T14:00:49.993Z,6.47
2023-11-17T14:03:17.500Z,6.07
2023-11-17T14:05:46.575Z,6.33
2023-11-17T14:08:14.295Z,6.67
2023-11-17T14:10:42.746Z,8.80
2023-11-17T14:13:10.425Z,7.80
2023-11-17T14:15:47.828Z,7.63
2023-11-17T14:18:19.629Z,6.37
2023-11-17T14:20:47.120Z,7.37
2023-11-17T14:23:15.672Z,7.07
2023-11-17T14:25:43.221Z,8.20
2023-11-17T14:28:11.501Z,6.50
2023-11-17T14:30:38.964Z,8.73
2023-11-17T14:33:07.039Z,7.73
2023-11-17T14:35:34.640Z,8.20
2023-11-17T14:38:02.332Z,7.93
2023-11-17T14:40:29.901Z,9.13
2023-11-17T14:43:00.205Z,8.10
2023-11-17T14:45:28.138Z,8.90
2023-11-17T14:47:56.006Z,8.23
2023-11-17T14:50:23.918Z,9.53
2023-11-17T14:52:51.507Z,9.43
2023-11-17T14:55:23.114Z,9.27
2023-11-17T14:57:50.822Z,8.43
2023-11-17T15:00:24.008Z,9.33
2023-11-17T15:02:53.397Z,10.20
2023-11-17T15:05:21.396Z,9.77
2023-11-17T15:07:49.312Z,9.17
2023-11-17T15:10:19.650Z,9.23
2023-11-17T15:12:49.801Z,10.93
2023-11-17T15:15:29.804Z,18.30
2023-11-17T15:17:59.774Z,14.87
2023-11-17T15:20:35.640Z,11.90
2023-11-17T15:23:06.385Z,12.70
2023-11-17T15:25:37.994Z,12.13
2023-11-17T15:28:14.593Z,12.67
2023-11-17T15:30:48.190Z,10.57
2023-11-17T15:33:17.532Z,10.97
2023-11-17T15:35:45.497Z,11.90
2023-11-17T15:38:13.075Z,11.77
2023-11-17T15:40:41.857Z,12.70
2023-11-17T15:43:09.541Z,11.47
2023-11-17T15:45:37.719Z,12.33
2023-11-17T15:48:05.428Z,11.87
2023-11-17T15:50:33.065Z,10.70
2023-11-17T15:53:00.767Z,12.50
2023-11-17T15:55:28.306Z,12.70
2023-11-17T15:57:55.962Z,11.43
2023-11-17T16:00:27.776Z,13.07
2023-11-17T16:02:55.461Z,12.67
2023-11-17T16:05:23.661Z,11.83
2023-11-17T16:07:52.385Z,13.23
2023-11-17T16:10:24.151Z,14.23
2023-11-17T16:12:53.287Z,12.60
2023-11-17T16:15:21.450Z,13.73
2023-11-17T16:17:49.552Z,13.80
2023-11-17T16:20:17.535Z,14.37
2023-11-17T16:22:46.118Z,13.03
2023-11-17T16:25:15.547Z,13.60
2023-11-17T16:27:44.299Z,14.30
2023-11-17T16:30:18.319Z,13.90
2023-11-17T16:32:50.788Z,15.17
2023-11-17T16:35:18.904Z,14.50
2023-11-17T16:37:51.151Z,13.47
2023-11-17T16:40:25.348Z,15.23
2023-11-17T16:42:57.964Z,16.60
2023-11-17T16:45:26.032Z,15.67
2023-11-17T16:47:54.361Z,15.40
2023-11-17T16:50:22.769Z,15.50
2023-11-17T16:52:50.794Z,15.13
2023-11-17T16:55:18.462Z,15.33
2023-11-17T16:57:46.186Z,14.80
2023-11-17T17:00:17.636Z,13.97
2023-11-17T17:02:45.169Z,14.57
2023-11-17T17:05:15.575Z,13.17
2023-11-17T17:07:45.085Z,13.77
2023-11-17T17:10:13.067Z,14.30
2023-11-17T17:12:40.674Z,14.10
2023-11-17T17:15:14.137Z,13.03
2023-11-17T17:17:49.779Z,14.57
2023-11-17T17:20:19.771Z,13.37
2023-11-17T17:22:48.476Z,12.17
2023-11-17T17:25:17.039Z,13.93
2023-11-17T17:27:54.356Z,13.13
2023-11-17T17:30:24.886Z,15.33
2023-11-17T17:32:52.465Z,15.13
2023-11-17T17:35:24.031Z,14.83
2023-11-17T17:37:51.551Z,15.77
2023-11-17T17:40:20.505Z,14.00
2023-11-17T17:42:48.344Z,18.40
2023-11-17T17:45:20.206Z,17.57
2023-11-17T17:47:49.211Z,16.00
2023-11-17T17:50:17.541Z,17.73
2023-11-17T17:52:48.790Z,14.93
2023-11-17T17:55:17.647Z,14.60
2023-11-17T17:57:45.913Z,15.77
2023-11-17T18:00:17.485Z,14.13
2023-11-17T18:02:49.412Z,15.57
2023-11-17T18:05:18.098Z,15.07
2023-11-17T18:07:46.967Z,13.53
2023-11-17T18:10:16.317Z,16.83
2023-11-17T18:12:47.793Z,14.80
2023-11-17T18:15:19.880Z,15.70
2023-11-17T18:17:50.567Z,15.07
2023-11-17T18:20:20.083Z,17.23
2023-11-17T18:22:49.767Z,17.33
2023-11-17T18:25:18.786Z,17.60
2023-11-17T18:27:48.238Z,18.53
2023-11-17T18:30:16.830Z,19.40
2023-11-17T18:32:44.776Z,18.90
2023-11-17T18:35:15.480Z,17.83
2023-11-17T18:37:46.553Z,16.60
2023-11-17T18:40:22.901Z,22.03
2023-11-17T18:42:51.325Z,20.50
2023-11-17T18:45:21.290Z,17.90
2023-11-17T18:47:50.028Z,14.73
2023-11-17T18:50:19.391Z,19.53
2023-11-17T18:52:48.497Z,17.70
2023-11-17T18:55:17.605Z,16.87
2023-11-17T18:57:45.824Z,17.60
2023-11-17T19:00:21.082Z,18.43
2023-11-17T19:02:49.849Z,18.57
2023-11-17T19:05:19.773Z,18.70
2023-11-17T19:07:49.263Z,20.37
2023-11-17T19:10:20.331Z,19.77
2023-11-17T19:12:48.789Z,18.20
2023-11-17T19:15:16.377Z,19.17
2023-11-17T19:17:45.704Z,18.67
2023-11-17T19:20:13.869Z,17.63
2023-11-17T19:22:41.890Z,18.07
2023-11-17T19:25:09.676Z,17.77
2023-11-17T19:27:37.989Z,18.77
2023-11-17T19:30:13.808Z,19.07
2023-11-17T19:32:44.894Z,19.80
2023-11-17T19:35:15.567Z,18.50
2023-11-17T19:37:44.113Z,17.47
2023-11-17T19:40:13.701Z,18.07
2023-11-17T19:42:43.346Z,19.23
2023-11-17T19:45:21.729Z,19.33
2023-11-17T19:47:50.928Z,19.03
2023-11-17T19:50:20.192Z,19.13
2023-11-17T19:52:49.070Z,18.43
2023-11-17T19:55:17.286Z,20.00
2023-11-17T19:57:48.796Z,18.83
2023-11-17T20:00:23.884Z,19.43
2023-11-17T20:02:52.203Z,19.90
2023-11-17T20:05:23.436Z,20.93
2023-11-17T20:07:51.682Z,20.93
2023-11-17T20:10:19.626Z,21.20
2023-11-17T20:12:47.222Z,22.43
2023-11-17T20:15:18.546Z,22.33
2023-11-17T20:17:55.396Z,21.57
2023-11-17T20:20:28.806Z,22.97
2023-11-17T20:22:58.232Z,23.43
2023-11-17T20:25:26.681Z,30.47
2023-11-17T20:27:56.580Z,33.40
2023-11-17T20:30:26.263Z,37.83
2023-11-17T20:32:55.362Z,38.23
2023-11-17T20:35:24.830Z,37.07
2023-11-17T20:37:53.650Z,57.13
2023-11-17T20:40:21.648Z,41.20
2023-11-17T20:42:51.384Z,34.50
2023-11-17T20:45:20.742Z,27.77
2023-11-17T20:47:48.598Z,25.93
2023-11-17T20:50:21.761Z,26.33
2023-11-17T20:52:51.865Z,25.30
2023-11-17T20:55:23.501Z,29.10
2023-11-17T20:57:52.316Z,32.70
2023-11-17T21:00:24.351Z,32.63
2023-11-17T21:02:55.903Z,26.93
2023-11-17T21:05:25.224Z,27.13
2023-11-17T21:07:53.390Z,30.30
2023-11-17T21:10:23.344Z,30.90
2023-11-17T21:12:53.487Z,31.33
2023-11-17T21:15:22.155Z,28.47
2023-11-17T21:17:52.552Z,29.43
2023-11-17T21:20:21.434Z,31.37
2023-11-17T21:22:49.285Z,30.13
2023-11-17T21:25:19.427Z,30.70
2023-11-17T21:27:49.144Z,28.90
2023-11-17T21:30:17.025Z,29.80
2023-11-17T21:32:50.459Z,32.43
2023-11-17T21:35:19.635Z,32.73
2023-11-17T21:37:53.500Z,32.83
2023-11-17T21:40:23.234Z,33.47
2023-11-17T21:42:51.459Z,31.77
2023-11-17T21:45:21.659Z,30.83
2023-11-17T21:47:52.538Z,30.50
2023-11-17T21:50:22.079Z,27.80
2023-11-17T21:52:50.876Z,29.53
2023-11-17T21:55:19.119Z,29.03
2023-11-17T21:57:47.545Z,30.23
2023-11-17T22:00:18.470Z,27.47
2023-11-17T22:02:47.594Z,26.57
2023-11-17T22:05:16.708Z,28.00
2023-11-17T22:07:45.429Z,28.97
2023-11-17T22:10:13.438Z,29.70
2023-11-17T22:12:41.279Z,26.43
2023-11-17T22:15:10.236Z,27.30
2023-11-17T22:17:38.590Z,25.73
2023-11-17T22:20:07.531Z,30.40
2023-11-17T22:22:35.153Z,33.63
2023-11-17T22:25:03.057Z,32.83
2023-11-17T22:27:30.698Z,34.80
2023-11-17T22:29:58.258Z,31.90
2023-11-17T22:32:25.848Z,32.57
2023-11-17T22:34:53.378Z,43.03
2023-11-17T22:37:23.664Z,33.03
2023-11-17T22:39:51.287Z,31.13
2023-11-17T22:42:18.744Z,31.43
2023-11-17T22:44:46.152Z,29.43
2023-11-17T22:47:13.888Z,29.87
2023-11-17T22:49:42.436Z,28.07
2023-11-17T22:52:09.871Z,31.40
2023-11-17T22:54:37.280Z,31.70
2023-11-17T22:57:04.850Z,31.37
2023-11-17T22:59:32.910Z,31.33
2023-11-17T23:02:02.558Z,27.47
2023-11-17T23:04:30.291Z,29.80
2023-11-17T23:06:59.207Z,31.13
2023-11-17T23:09:28.736Z,30.80
2023-11-17T23:11:59.146Z,32.10
2023-11-17T23:14:28.409Z,29.57
2023-11-17T23:16:56.005Z,30.57
2023-11-17T23:19:23.647Z,31.70
2023-11-17T23:21:51.130Z,29.87
2023-11-17T23:24:18.598Z,29.80
2023-11-17T23:26:46.804Z,29.53
2023-11-17T23:29:14.402Z,29.27
2023-11-17T23:31:42.194Z,29.60
2023-11-17T23:34:09.974Z,28.87
2023-11-17T23:36:38.176Z,28.73
2023-11-17T23:39:06.292Z,29.17
2023-11-17T23:41:34.204Z,28.37
2023-11-17T23:44:01.707Z,29.70
2023-11-17T23:46:29.224Z,30.97
2023-11-17T23:48:57.785Z,30.90
2023-11-17T23:51:25.389Z,32.10
2023-11-17T23:53:52.876Z,32.47
2023-11-17T23:56:20.277Z,31.60
2023-11-17T23:58:48.163Z,32.07
